Time;durP1;ratioP1;P1;durP2;ratioP2;P2;SDS_P1;SDS_P2;PMS_P1;PMS_P2;Temp;Humidity;BMP_temperature;BMP_pressure;BME280_temperature;BME280_humidity;BME280_pressure;Samples;Min_cycle;Max_cycle;Signal;HPM_P1;HPM_P2
2021/05/08 00:01:27;;;;;;;11.85;9.60;;;3.80;99.90;;;;;;5055016;28;20037;-67
2021/05/08 00:03:54;;;;;;;12.02;9.55;;;3.80;99.90;;;;;;5056031;28;20133;-67
2021/05/08 00:06:21;;;;;;;12.20;9.95;;;3.60;99.90;;;;;;5054651;28;20057;-67
2021/05/08 00:08:49;;;;;;;12.95;10.15;;;3.60;99.90;;;;;;5052853;28;20064;-67
2021/05/08 00:11:16;;;;;;;12.40;9.68;;;3.60;99.90;;;;;;5049335;28;20411;-67
2021/05/08 00:13:43;;;;;;;11.50;9.73;;;3.60;99.90;;;;;;5049618;28;20060;-67
2021/05/08 00:16:10;;;;;;;10.30;8.90;;;3.50;99.90;;;;;;5050461;28;20495;-67
2021/05/08 00:18:37;;;;;;;10.55;9.20;;;3.40;99.90;;;;;;5047702;28;20128;-67
2021/05/08 00:21:05;;;;;;;11.63;8.82;;;3.40;99.90;;;;;;5046422;28;20045;-67
2021/05/08 00:23:32;;;;;;;12.45;8.60;;;3.30;99.90;;;;;;5048111;28;20107;-67
2021/05/08 00:25:59;;;;;;;11.48;9.15;;;3.30;99.90;;;;;;5050275;28;20048;-67
2021/05/08 00:28:26;;;;;;;12.23;9.75;;;3.30;99.90;;;;;;5050653;28;20457;-67
2021/05/08 00:30:58;;;;;;;11.45;9.13;;;3.30;99.90;;;;;;5049094;28;20053;-67
2021/05/08 00:33:25;;;;;;;9.85;8.85;;;3.30;99.90;;;;;;5048964;28;20053;-67
2021/05/08 00:35:52;;;;;;;11.27;8.63;;;3.30;99.90;;;;;;5046726;28;20045;-67
2021/05/08 00:38:19;;;;;;;12.68;9.18;;;3.20;99.90;;;;;;5050021;28;20059;-67
2021/05/08 00:40:46;;;;;;;10.15;8.95;;;3.20;99.90;;;;;;5050794;28;20140;-67
2021/05/08 00:43:15;;;;;;;11.55;9.00;;;3.10;99.90;;;;;;5046841;28;20079;-67
2021/05/08 00:45:43;;;;;;;11.80;8.18;;;3.10;99.90;;;;;;5051117;28;20040;-67
2021/05/08 00:48:13;;;;;;;10.57;8.57;;;3.00;99.90;;;;;;5049021;28;20048;-67
2021/05/08 00:50:42;;;;;;;13.25;8.43;;;2.90;99.90;;;;;;5048730;28;20059;-67
2021/05/08 00:53:12;;;;;;;10.23;8.18;;;2.80;99.90;;;;;;5048676;28;20504;-67
2021/05/08 00:55:40;;;;;;;10.07;8.48;;;2.80;99.90;;;;;;5046586;28;20049;-67
2021/05/08 00:58:08;;;;;;;11.43;8.15;;;2.80;99.90;;;;;;5048739;28;20049;-67
2021/05/08 01:00:37;;;;;;;10.73;8.05;;;2.70;99.90;;;;;;5049661;28;20048;-67
2021/05/08 01:03:07;;;;;;;10.38;7.90;;;2.70;99.90;;;;;;5047433;28;20407;-67
2021/05/08 01:05:37;;;;;;;11.80;8.60;;;2.70;99.90;;;;;;5048742;28;20045;-66
2021/05/08 01:08:10;;;;;;;15.45;8.45;;;2.70;99.90;;;;;;5048346;28;20068;-66
2021/05/08 01:10:37;;;;;;;10.15;7.80;;;2.60;99.90;;;;;;5050070;28;20052;-66
2021/05/08 01:13:05;;;;;;;11.35;8.40;;;2.60;99.90;;;;;;5049927;28;20045;-67
2021/05/08 01:15:32;;;;;;;9.57;7.80;;;2.60;99.90;;;;;;5049702;28;20116;-67
2021/05/08 01:18:00;;;;;;;9.52;7.82;;;2.50;99.90;;;;;;5050938;28;20048;-66
2021/05/08 01:20:29;;;;;;;12.85;8.30;;;2.50;99.90;;;;;;5048683;28;20499;-66
2021/05/08 01:23:00;;;;;;;11.68;8.65;;;2.50;99.90;;;;;;5050848;28;20045;-66
2021/05/08 01:25:28;;;;;;;9.88;7.80;;;2.50;99.90;;;;;;5054426;28;20045;-66
2021/05/08 01:27:58;;;;;;;11.05;7.93;;;2.40;99.90;;;;;;5053975;28;20535;-66
2021/05/08 01:30:32;;;;;;;9.77;7.95;;;2.40;99.90;;;;;;5055409;28;20140;-66
2021/05/08 01:33:03;;;;;;;8.80;7.32;;;2.30;99.90;;;;;;5052211;28;20056;-66
2021/05/08 01:35:31;;;;;;;11.43;8.90;;;2.30;99.90;;;;;;5051535;28;20091;-66
2021/05/08 01:37:59;;;;;;;10.15;8.23;;;2.30;99.90;;;;;;5051853;28;20641;-66
2021/05/08 01:40:31;;;;;;;10.07;8.20;;;2.20;99.90;;;;;;5055832;28;20723;-66
2021/05/08 01:42:58;;;;;;;10.18;8.20;;;2.20;99.90;;;;;;5052856;28;20044;-67
2021/05/08 01:45:27;;;;;;;10.32;8.32;;;2.20;99.90;;;;;;5053814;28;20045;-66
2021/05/08 01:47:59;;;;;;;9.75;8.00;;;2.10;99.90;;;;;;5053207;28;20053;-66
2021/05/08 01:50:28;;;;;;;10.02;8.35;;;2.10;99.90;;;;;;5049843;28;20041;-66
2021/05/08 01:52:55;;;;;;;10.57;8.30;;;2.10;99.90;;;;;;5051764;28;20132;-66
2021/05/08 01:55:25;;;;;;;10.38;8.45;;;2.10;99.90;;;;;;5053122;28;20045;-66
2021/05/08 01:57:57;;;;;;;11.48;8.35;;;2.10;99.90;;;;;;5051754;28;20044;-67
2021/05/08 02:00:30;;;;;;;12.57;8.93;;;2.00;99.90;;;;;;5052069;28;20056;-65
2021/05/08 02:02:58;;;;;;;12.45;9.10;;;2.00;99.90;;;;;;5049355;28;20037;-67
2021/05/08 02:05:33;;;;;;;10.30;8.52;;;2.00;99.90;;;;;;5052100;28;20045;-67
2021/05/08 02:08:08;;;;;;;11.57;8.70;;;2.00;99.90;;;;;;5052300;28;20056;-67
2021/05/08 02:10:36;;;;;;;11.68;8.95;;;2.00;99.90;;;;;;5048819;28;20134;-66
2021/05/08 02:13:05;;;;;;;12.10;8.75;;;2.00;99.90;;;;;;5052087;28;20060;-66
2021/05/08 02:15:34;;;;;;;12.82;8.57;;;1.90;99.90;;;;;;5052156;28;20052;-66
2021/05/08 02:18:03;;;;;;;11.57;9.10;;;1.90;99.90;;;;;;5049948;28;20486;-66
2021/05/08 02:20:33;;;;;;;12.40;9.18;;;1.90;99.90;;;;;;5050173;28;20143;-66
2021/05/08 02:23:02;;;;;;;13.75;9.32;;;1.90;99.90;;;;;;5051765;28;20165;-66
2021/05/08 02:25:30;;;;;;;14.88;9.45;;;1.90;99.90;;;;;;5051368;28;20087;-66
2021/05/08 02:27:59;;;;;;;11.82;9.15;;;1.90;99.90;;;;;;5049435;28;20083;-66
2021/05/08 02:30:32;;;;;;;13.13;8.60;;;1.90;99.90;;;;;;5053056;28;20846;-66
2021/05/08 02:33:01;;;;;;;11.52;8.60;;;1.90;99.90;;;;;;5051272;28;20057;-66
2021/05/08 02:35:30;;;;;;;12.20;8.70;;;1.90;99.90;;;;;;5050611;28;20044;-67
2021/05/08 02:37:57;;;;;;;12.38;8.45;;;1.80;99.90;;;;;;5050946;28;20052;-66
2021/05/08 02:40:31;;;;;;;11.93;8.80;;;1.80;99.90;;;;;;5054718;28;20401;-66
2021/05/08 02:42:59;;;;;;;11.38;9.25;;;1.80;99.90;;;;;;5051650;28;20629;-66
2021/05/08 02:45:26;;;;;;;13.35;9.48;;;1.80;99.90;;;;;;5049453;28;20048;-66
2021/05/08 02:47:54;;;;;;;11.68;9.18;;;1.80;99.90;;;;;;5050865;28;20048;-66
2021/05/08 02:50:24;;;;;;;12.70;9.20;;;1.80;99.90;;;;;;5051248;28;20049;-67
2021/05/08 02:52:56;;;;;;;13.18;9.45;;;1.80;99.90;;;;;;5050337;28;20834;-66
2021/05/08 02:55:24;;;;;;;11.88;9.18;;;1.80;99.90;;;;;;5052111;28;20040;-66
2021/05/08 02:57:53;;;;;;;14.40;10.20;;;1.80;99.90;;;;;;5051927;28;20041;-67
2021/05/08 03:00:20;;;;;;;12.13;9.50;;;1.70;99.90;;;;;;5050442;28;20124;-66
2021/05/08 03:02:50;;;;;;;12.80;9.40;;;1.70;99.90;;;;;;5049338;28;20045;-66
2021/05/08 03:05:18;;;;;;;14.35;9.55;;;1.60;99.90;;;;;;5050508;28;20049;-66
2021/05/08 03:07:48;;;;;;;12.40;8.77;;;1.60;99.90;;;;;;5050275;28;20052;-66
2021/05/08 03:10:16;;;;;;;12.27;9.13;;;1.60;99.90;;;;;;5050711;28;20456;-66
2021/05/08 03:12:46;;;;;;;11.00;8.65;;;1.70;99.90;;;;;;5046644;28;20065;-66
2021/05/08 03:15:14;;;;;;;12.93;9.57;;;1.60;99.90;;;;;;5051125;28;20060;-66
2021/05/08 03:17:41;;;;;;;12.90;9.32;;;1.60;99.90;;;;;;5052007;28;20368;-66
2021/05/08 03:20:09;;;;;;;15.05;9.93;;;1.50;99.90;;;;;;5052204;28;20460;-66
2021/05/08 03:22:36;;;;;;;12.65;9.48;;;1.50;99.90;;;;;;5050257;28;20063;-66
2021/05/08 03:25:04;;;;;;;13.35;9.95;;;1.50;99.90;;;;;;5050782;28;20041;-66
2021/05/08 03:27:31;;;;;;;12.15;9.45;;;1.50;99.90;;;;;;5047620;28;20412;-66
2021/05/08 03:29:58;;;;;;;14.18;9.07;;;1.40;99.90;;;;;;5053081;28;20518;-65
2021/05/08 03:32:26;;;;;;;13.85;9.25;;;1.50;99.90;;;;;;5048132;28;20060;-66
2021/05/08 03:34:54;;;;;;;11.15;8.30;;;1.50;99.90;;;;;;5050365;28;20048;-65
2021/05/08 03:37:24;;;;;;;13.60;9.25;;;1.40;99.90;;;;;;5050845;28;20037;-66
2021/05/08 03:39:53;;;;;;;12.98;9.27;;;1.40;99.90;;;;;;5050525;28;20045;-66
2021/05/08 03:42:20;;;;;;;13.27;9.57;;;1.40;99.90;;;;;;5051931;28;20617;-69
2021/05/08 03:44:47;;;;;;;14.35;9.10;;;1.40;99.90;;;;;;5051337;28;20087;-66
2021/05/08 03:47:14;;;;;;;12.98;8.90;;;1.50;99.90;;;;;;5051457;28;20411;-66
2021/05/08 03:49:41;;;;;;;12.38;9.13;;;1.50;99.90;;;;;;5051172;28;20063;-66
2021/05/08 03:52:08;;;;;;;13.38;9.35;;;1.50;99.90;;;;;;5049960;28;20055;-66
2021/05/08 03:54:37;;;;;;;11.75;8.48;;;1.60;99.90;;;;;;5049126;28;20106;-66
2021/05/08 03:57:05;;;;;;;13.75;9.05;;;1.60;99.90;;;;;;5052129;28;20041;-66
2021/05/08 03:59:32;;;;;;;10.95;8.40;;;1.60;99.90;;;;;;5045337;28;20099;-67
2021/05/08 04:01:59;;;;;;;11.23;9.27;;;1.70;99.90;;;;;;5048554;28;20045;-67
2021/05/08 04:04:27;;;;;;;12.35;8.40;;;1.70;99.90;;;;;;5048029;28;20411;-67
2021/05/08 04:06:54;;;;;;;12.40;9.48;;;1.80;99.90;;;;;;5050935;28;20071;-67
2021/05/08 04:09:21;;;;;;;12.20;8.93;;;1.80;99.90;;;;;;5051083;28;20056;-67
2021/05/08 04:11:48;;;;;;;12.13;8.70;;;1.90;99.90;;;;;;5051045;28;20053;-67
2021/05/08 04:14:15;;;;;;;14.82;8.73;;;2.00;99.90;;;;;;5051062;28;20565;-67
2021/05/08 04:16:41;;;;;;;12.82;9.88;;;2.00;99.90;;;;;;5050049;28;20060;-67
2021/05/08 04:19:08;;;;;;;13.10;8.55;;;2.10;99.90;;;;;;5049519;28;20136;-66
2021/05/08 04:21:35;;;;;;;12.25;8.50;;;2.20;99.90;;;;;;5048407;28;20136;-66
2021/05/08 04:24:02;;;;;;;12.32;8.48;;;2.20;99.90;;;;;;5048850;28;20049;-67
2021/05/08 04:26:30;;;;;;;13.27;8.98;;;2.30;99.90;;;;;;5049792;28;20119;-65
2021/05/08 04:29:03;;;;;;;11.50;9.10;;;2.40;99.90;;;;;;5047891;28;20041;-66
2021/05/08 04:31:30;;;;;;;11.80;8.32;;;2.50;99.90;;;;;;5051011;28;20176;-67
2021/05/08 04:33:57;;;;;;;11.57;8.73;;;2.60;99.90;;;;;;5045753;28;20041;-67
2021/05/08 04:36:24;;;;;;;11.38;8.30;;;2.70;99.90;;;;;;5049393;28;20068;-66
2021/05/08 04:38:51;;;;;;;11.07;8.07;;;2.80;99.90;;;;;;5049133;28;20442;-66
2021/05/08 04:41:18;;;;;;;11.18;8.55;;;2.80;99.90;;;;;;5052787;28;20499;-66
2021/05/08 04:43:44;;;;;;;12.35;8.23;;;2.90;99.90;;;;;;5050454;28;20045;-67
2021/05/08 04:46:16;;;;;;;10.73;7.72;;;3.00;99.90;;;;;;5050318;28;20041;-66
2021/05/08 04:48:43;;;;;;;10.80;7.97;;;3.10;99.90;;;;;;5049424;28;20470;-66
2021/05/08 04:51:09;;;;;;;10.68;8.00;;;3.10;99.90;;;;;;5050069;28;20052;-66
2021/05/08 04:53:36;;;;;;;11.45;8.07;;;3.20;99.90;;;;;;5050533;28;20091;-66
2021/05/08 04:56:03;;;;;;;10.15;8.02;;;3.30;99.90;;;;;;5049040;28;20048;-66
2021/05/08 04:58:31;;;;;;;9.93;7.80;;;3.40;99.90;;;;;;5047376;28;20060;-66
2021/05/08 05:00:58;;;;;;;11.75;8.63;;;3.50;99.90;;;;;;5049994;28;20045;-67
2021/05/08 05:03:25;;;;;;;10.90;7.57;;;3.60;99.90;;;;;;5047500;28;20045;-66
2021/05/08 05:05:52;;;;;;;10.38;8.20;;;3.60;99.90;;;;;;5050199;28;20098;-67
2021/05/08 05:08:20;;;;;;;9.57;8.07;;;3.70;99.90;;;;;;5049841;28;20107;-66
2021/05/08 05:10:51;;;;;;;11.43;8.38;;;3.80;99.90;;;;;;5048923;28;20098;-66
2021/05/08 05:13:22;;;;;;;12.77;8.15;;;3.90;99.90;;;;;;5046565;28;20052;-66
2021/05/08 05:15:49;;;;;;;9.80;8.27;;;4.00;99.90;;;;;;5048174;28;20060;-66
2021/05/08 05:18:16;;;;;;;11.98;8.90;;;4.10;99.90;;;;;;5048218;28;20491;-67
2021/05/08 05:20:45;;;;;;;12.02;8.65;;;4.20;99.90;;;;;;5048717;28;20137;-66
2021/05/08 05:23:14;;;;;;;10.20;8.73;;;4.20;99.90;;;;;;5049262;28;20076;-66
2021/05/08 05:25:41;;;;;;;10.25;7.80;;;4.30;99.90;;;;;;5050036;28;20546;-66
2021/05/08 05:28:28;;;;;;;10.63;8.88;;;4.40;99.90;;;;;;5047503;28;20049;-66
2021/05/08 05:30:56;;;;;;;11.02;9.45;;;4.50;99.90;;;;;;5048696;28;20049;-66
2021/05/08 05:33:24;;;;;;;16.05;9.48;;;4.50;99.90;;;;;;5030831;28;20103;-66
2021/05/08 05:35:54;;;;;;;12.90;9.35;;;4.60;99.90;;;;;;5048561;28;20075;-66
2021/05/08 05:38:22;;;;;;;13.20;10.07;;;4.70;99.90;;;;;;5049037;28;20472;-66
2021/05/08 05:40:52;;;;;;;10.63;9.40;;;4.80;99.90;;;;;;5050590;28;20052;-66
2021/05/08 05:43:19;;;;;;;10.55;8.82;;;4.80;99.90;;;;;;5047939;28;20040;-66
2021/05/08 05:45:46;;;;;;;9.82;8.65;;;4.90;99.90;;;;;;5047978;28;20056;-66
2021/05/08 05:48:13;;;;;;;11.20;9.07;;;5.00;99.90;;;;;;5049308;28;20053;-66
2021/05/08 05:50:43;;;;;;;11.35;9.27;;;5.10;99.90;;;;;;5047779;28;20052;-66
2021/05/08 05:53:10;;;;;;;10.23;8.95;;;5.20;99.90;;;;;;5049554;28;20044;-66
2021/05/08 05:55:37;;;;;;;11.20;10.00;;;5.30;99.90;;;;;;5047417;28;20056;-66
2021/05/08 05:58:04;;;;;;;14.07;11.10;;;5.30;99.90;;;;;;5050145;28;20041;-66
2021/05/08 06:00:31;;;;;;;13.80;10.25;;;5.40;99.90;;;;;;5048673;28;20052;-66
2021/05/08 06:02:58;;;;;;;10.88;9.73;;;5.50;99.90;;;;;;5049440;28;20049;-65
2021/05/08 06:05:25;;;;;;;12.50;9.77;;;5.70;99.90;;;;;;5045261;28;20136;-66
2021/05/08 06:07:52;;;;;;;11.18;9.95;;;5.70;99.90;;;;;;5041948;28;20549;-66
2021/05/08 06:10:19;;;;;;;10.93;9.77;;;5.80;99.90;;;;;;5040130;28;20053;-66
2021/05/08 06:12:46;;;;;;;10.82;9.73;;;5.90;99.90;;;;;;5049410;28;20458;-66
2021/05/08 06:15:13;;;;;;;11.52;10.32;;;6.00;99.90;;;;;;5052632;28;20099;-66
2021/05/08 06:17:40;;;;;;;12.45;10.23;;;6.10;99.90;;;;;;5053132;28;20410;-66
2021/05/08 06:20:11;;;;;;;10.63;9.52;;;6.20;99.90;;;;;;5052439;28;20052;-66
2021/05/08 06:22:38;;;;;;;12.25;10.80;;;6.30;99.90;;;;;;5053007;28;20426;-66
2021/05/08 06:25:05;;;;;;;11.50;10.30;;;6.40;99.90;;;;;;5053039;28;20126;-66
2021/05/08 06:27:37;;;;;;;11.65;9.88;;;6.50;99.90;;;;;;5052025;28;20064;-66
2021/05/08 06:30:05;;;;;;;11.25;10.15;;;6.60;99.90;;;;;;5053437;28;20084;-66
2021/05/08 06:32:31;;;;;;;12.18;10.95;;;6.70;99.90;;;;;;5052232;28;20079;-67
2021/05/08 06:34:59;;;;;;;15.98;11.68;;;6.80;99.90;;;;;;5053558;28;20119;-66
2021/05/08 06:37:27;;;;;;;12.52;10.52;;;6.90;99.90;;;;;;5051243;28;20052;-66
2021/05/08 06:39:56;;;;;;;13.63;11.32;;;7.10;99.90;;;;;;5054525;28;20045;-66
2021/05/08 06:42:23;;;;;;;11.85;10.75;;;7.20;99.90;;;;;;5051025;28;20043;-66
2021/05/08 06:44:51;;;;;;;13.63;11.23;;;7.20;99.90;;;;;;5052378;28;20499;-66
2021/05/08 06:47:20;;;;;;;12.25;11.05;;;7.40;99.90;;;;;;5052740;28;20061;-66
2021/05/08 06:49:48;;;;;;;11.90;10.73;;;7.40;99.90;;;;;;5048316;28;20037;-67
2021/05/08 06:52:15;;;;;;;12.13;10.95;;;7.50;99.90;;;;;;5045602;28;20080;-67
2021/05/08 06:54:42;;;;;;;12.32;11.10;;;7.60;99.90;;;;;;5047104;28;20045;-67
2021/05/08 06:57:09;;;;;;;11.38;10.38;;;7.70;99.90;;;;;;5044995;28;20053;-68
2021/05/08 06:59:37;;;;;;;12.45;11.25;;;7.80;99.90;;;;;;5052376;28;20045;-66
2021/05/08 07:02:04;;;;;;;12.38;11.27;;;8.00;99.90;;;;;;5047092;28;20037;-66
2021/05/08 07:04:33;;;;;;;12.38;11.18;;;8.10;99.90;;;;;;5047283;28;20060;-66
2021/05/08 07:07:00;;;;;;;12.93;11.50;;;8.30;99.90;;;;;;5051248;28;20045;-65
2021/05/08 07:09:26;;;;;;;13.02;11.50;;;8.30;99.90;;;;;;5051271;28;20416;-66
2021/05/08 07:11:53;;;;;;;12.60;11.43;;;8.40;99.90;;;;;;5050610;28;20041;-66
2021/05/08 07:14:20;;;;;;;12.43;11.30;;;8.50;99.90;;;;;;5050964;28;20053;-66
2021/05/08 07:16:54;;;;;;;13.93;11.88;;;8.60;99.90;;;;;;5049625;28;20049;-65
2021/05/08 07:19:21;;;;;;;11.88;10.75;;;8.70;99.90;;;;;;5050983;28;20123;-65
2021/05/08 07:21:48;;;;;;;11.90;10.70;;;8.90;99.90;;;;;;5031839;28;20072;-65
2021/05/08 07:24:18;;;;;;;12.00;10.88;;;9.00;99.90;;;;;;5050337;28;20041;-66
2021/05/08 07:26:45;;;;;;;11.98;10.88;;;9.10;99.90;;;;;;5047015;28;20052;-65
2021/05/08 07:29:14;;;;;;;11.48;10.48;;;9.30;99.90;;;;;;5050296;28;20063;-66
2021/05/08 07:31:41;;;;;;;12.10;10.90;;;9.40;99.90;;;;;;5050588;28;20053;-66
2021/05/08 07:34:08;;;;;;;11.73;10.63;;;9.50;99.90;;;;;;5049236;28;20460;-66
2021/05/08 07:36:35;;;;;;;11.18;10.25;;;9.60;99.90;;;;;;5051182;28;20098;-66
2021/05/08 07:39:03;;;;;;;11.70;10.60;;;9.70;99.90;;;;;;5050208;28;20487;-65
2021/05/08 07:41:34;;;;;;;11.83;10.83;;;9.90;99.90;;;;;;5050199;28;20096;-66
2021/05/08 07:44:01;;;;;;;11.45;10.48;;;10.00;99.90;;;;;;5048992;28;20745;-65
2021/05/08 07:46:30;;;;;;;11.57;10.48;;;10.10;99.90;;;;;;5049041;28;20056;-66
2021/05/08 07:48:57;;;;;;;12.30;11.10;;;10.20;99.90;;;;;;5049660;28;20566;-66
2021/05/08 07:51:24;;;;;;;12.30;11.10;;;10.40;99.90;;;;;;5051039;28;20075;-65
2021/05/08 07:53:51;;;;;;;11.65;10.60;;;10.50;99.90;;;;;;5050905;28;20407;-65
2021/05/08 07:56:19;;;;;;;12.23;11.02;;;10.70;99.90;;;;;;5050219;28;20052;-65
2021/05/08 07:58:46;;;;;;;12.20;11.00;;;10.80;99.90;;;;;;5061364;28;20150;-65
2021/05/08 08:01:13;;;;;;;12.40;11.20;;;10.90;99.90;;;;;;5048495;28;20048;-65
2021/05/08 08:03:40;;;;;;;11.80;10.70;;;11.00;99.90;;;;;;5048930;28;20045;-65
2021/05/08 08:06:06;;;;;;;12.13;11.00;;;11.00;99.90;;;;;;5049190;28;20136;-66
2021/05/08 08:08:33;;;;;;;12.13;11.02;;;11.10;99.90;;;;;;5050221;28;20171;-66
2021/05/08 08:11:00;;;;;;;11.50;10.38;;;11.10;99.90;;;;;;5050499;28;20061;-66
2021/05/08 08:13:27;;;;;;;11.68;10.43;;;11.20;99.90;;;;;;5049169;28;20059;-66
2021/05/08 08:15:54;;;;;;;10.98;10.00;;;11.20;99.90;;;;;;5050944;28;20080;-67
2021/05/08 08:18:22;;;;;;;11.65;10.63;;;11.20;99.90;;;;;;5047661;28;20041;-67
2021/05/08 08:20:48;;;;;;;12.10;11.00;;;11.30;99.90;;;;;;5050727;28;20045;-66
2021/05/08 08:23:19;;;;;;;13.02;10.85;;;11.40;99.90;;;;;;5048692;28;20037;-67
2021/05/08 08:25:49;;;;;;;11.80;10.60;;;11.50;99.90;;;;;;5046595;28;20045;-67
2021/05/08 08:28:16;;;;;;;11.20;10.30;;;11.60;99.90;;;;;;5044873;28;20080;-67
2021/05/08 08:30:43;;;;;;;10.80;9.90;;;11.60;99.90;;;;;;5048419;28;20779;-67
2021/05/08 08:33:10;;;;;;;10.70;9.80;;;11.70;99.90;;;;;;5049133;28;20053;-66
2021/05/08 08:35:37;;;;;;;11.75;9.30;;;11.80;99.90;;;;;;5050377;28;20136;-67
2021/05/08 08:38:04;;;;;;;12.50;11.38;;;11.90;99.90;;;;;;5048531;28;20487;-67
2021/05/08 08:40:32;;;;;;;12.55;11.35;;;12.10;99.90;;;;;;5050189;28;20136;-67
2021/05/08 08:42:59;;;;;;;10.60;9.60;;;12.30;99.90;;;;;;5048752;28;20113;-67
2021/05/08 08:45:26;;;;;;;10.13;9.32;;;12.50;99.90;;;;;;5049065;28;20060;-67
2021/05/08 08:48:00;;;;;;;10.65;9.65;;;12.50;99.90;;;;;;5049443;28;20049;-67
2021/05/08 08:50:29;;;;;;;10.43;9.63;;;12.40;99.90;;;;;;5050310;28;20472;-67
2021/05/08 08:53:00;;;;;;;10.68;9.77;;;12.40;99.90;;;;;;5046370;28;20052;-66
2021/05/08 08:55:27;;;;;;;10.93;10.02;;;12.60;99.90;;;;;;5049273;28;20045;-67
2021/05/08 08:57:55;;;;;;;11.40;10.50;;;12.70;99.90;;;;;;5049803;28;20049;-66
2021/05/08 09:00:22;;;;;;;9.85;9.10;;;13.00;99.90;;;;;;5049107;28;20056;-66
2021/05/08 09:02:50;;;;;;;10.02;9.25;;;13.10;99.90;;;;;;5049071;28;20128;-67
2021/05/08 09:05:20;;;;;;;10.25;9.40;;;12.90;99.90;;;;;;5050445;28;20446;-66
2021/05/08 09:07:49;;;;;;;10.00;9.20;;;12.90;99.90;;;;;;5049915;28;20055;-66
2021/05/08 09:10:26;;;;;;;10.57;9.60;;;13.10;99.90;;;;;;5048155;28;20041;-67
2021/05/08 09:12:54;;;;;;;14.90;13.27;;;13.20;99.90;;;;;;5049173;28;20476;-66
2021/05/08 09:15:38;;;;;;;10.55;9.55;;;13.50;99.90;;;;;;5049826;28;20057;-67
2021/05/08 09:18:06;;;;;;;11.02;9.93;;;13.90;99.90;;;;;;5047903;28;20075;-67
2021/05/08 09:20:46;;;;;;;10.57;9.63;;;14.00;99.80;;;;;;5048791;28;20041;-66
2021/05/08 09:23:34;;;;;;;10.45;9.55;;;14.00;99.90;;;;;;5047869;28;20049;-66
2021/05/08 09:26:05;;;;;;;10.73;9.70;;;14.10;99.90;;;;;;5048066;28;20049;-66
2021/05/08 09:28:38;;;;;;;10.93;9.83;;;14.10;99.10;;;;;;5046370;28;20049;-65
2021/05/08 09:31:07;;;;;;;9.70;8.80;;;14.40;99.10;;;;;;5048799;28;20283;-66
2021/05/08 09:33:34;;;;;;;9.75;8.95;;;14.40;98.30;;;;;;5048508;28;20060;-66
2021/05/08 09:36:04;;;;;;;9.70;8.82;;;14.60;98.00;;;;;;5047719;28;20056;-66
2021/05/08 09:38:39;;;;;;;9.77;9.00;;;14.60;96.70;;;;;;5043733;28;20363;-65
2021/05/08 09:41:08;;;;;;;9.10;8.30;;;14.90;97.20;;;;;;5043635;28;20056;-65
2021/05/08 09:43:36;;;;;;;9.45;8.65;;;15.40;96.50;;;;;;5041875;28;20105;-67
2021/05/08 09:46:07;;;;;;;9.25;8.55;;;15.70;95.40;;;;;;5046230;28;20151;-66
2021/05/08 09:48:36;;;;;;;10.63;9.57;;;16.10;93.90;;;;;;5047023;28;20056;-66
2021/05/08 09:51:25;;;;;;;8.68;7.97;;;16.00;94.70;;;;;;5045711;28;20466;-65
2021/05/08 09:54:17;;;;;;;8.98;8.25;;;15.90;93.40;;;;;;5046679;28;20126;-65
2021/05/08 09:56:49;;;;;;;8.95;8.25;;;16.10;92.80;;;;;;5046009;28;20056;-65
2021/05/08 09:59:34;;;;;;;9.35;8.55;;;16.00;92.50;;;;;;5048139;28;20075;-66
2021/05/08 10:02:02;;;;;;;8.90;8.30;;;16.00;92.80;;;;;;5047981;28;20037;-66
2021/05/08 10:04:37;;;;;;;9.90;9.05;;;16.20;92.80;;;;;;5047986;28;20400;-64
2021/05/08 10:07:29;;;;;;;10.50;9.55;;;16.10;92.50;;;;;;5051153;28;20060;-66
2021/05/08 10:10:00;;;;;;;9.95;9.05;;;15.80;92.10;;;;;;5051466;28;20041;-65
2021/05/08 10:12:29;;;;;;;9.60;8.73;;;15.80;92.50;;;;;;5045923;28;20418;-66
2021/05/08 10:14:58;;;;;;;9.85;9.05;;;15.90;92.60;;;;;;5047790;28;20438;-66
2021/05/08 10:17:27;;;;;;;9.65;8.85;;;15.60;92.20;;;;;;5046549;28;20076;-66
2021/05/08 10:20:10;;;;;;;9.53;8.63;;;16.00;92.00;;;;;;5051123;28;20048;-66
2021/05/08 10:22:42;;;;;;;9.65;8.82;;;16.20;90.90;;;;;;5046125;28;20400;-66
2021/05/08 10:25:10;;;;;;;10.00;9.10;;;16.40;90.70;;;;;;5051490;28;20057;-66
2021/05/08 10:27:36;;;;;;;9.45;8.65;;;16.40;90.50;;;;;;5051574;28;20053;-65
2021/05/08 10:30:08;;;;;;;9.68;8.77;;;16.60;90.00;;;;;;5052379;28;20049;-66
2021/05/08 10:32:39;;;;;;;9.68;8.68;;;16.50;89.60;;;;;;5019929;28;20054;-68
2021/05/08 10:35:07;;;;;;;10.55;9.65;;;16.60;89.30;;;;;;5052412;28;20135;-66
2021/05/08 10:37:34;;;;;;;14.25;9.25;;;17.00;89.90;;;;;;5051534;28;20053;-67
2021/05/08 10:40:06;;;;;;;11.85;10.65;;;17.10;87.20;;;;;;5051743;28;20053;-67
2021/05/08 10:42:36;;;;;;;13.23;11.93;;;17.30;88.70;;;;;;5046784;28;20442;-68
2021/05/08 10:45:05;;;;;;;10.30;9.40;;;17.90;86.90;;;;;;5046462;28;20049;-68
2021/05/08 10:48:11;;;;;;;10.18;9.25;;;17.90;84.80;;;;;;5050820;28;20415;-68
2021/05/08 10:50:43;;;;;;;18.67;16.75;;;18.20;84.70;;;;;;4974687;28;20055;-68
2021/05/08 10:53:15;;;;;;;;;;;18.90;84.20;;;;;;4974203;28;20051;-68
2021/05/08 10:55:51;;;;;;;9.40;8.70;;;19.30;81.20;;;;;;4975459;28;19957;-68
2021/05/08 10:58:21;;;;;;;10.15;9.00;;;19.70;80.50;;;;;;4981731;28;20046;-67
2021/05/08 11:00:57;;;;;;;9.70;9.00;;;19.40;80.20;;;;;;4978251;28;20071;-67
2021/05/08 11:03:46;;;;;;;9.52;8.82;;;19.30;79.40;;;;;;4966440;28;20097;-66
2021/05/08 11:06:15;;;;;;;10.48;9.38;;;18.80;79.10;;;;;;4973872;28;20097;-67
2021/05/08 11:08:47;;;;;;;9.90;9.00;;;18.90;79.90;;;;;;4974470;28;20082;-66
2021/05/08 11:11:25;;;;;;;9.73;9.00;;;18.70;77.00;;;;;;4974714;28;20058;-67
2021/05/08 11:13:55;;;;;;;9.80;8.80;;;18.70;76.90;;;;;;4975977;28;20051;-67
2021/05/08 11:16:29;;;;;;;10.45;9.48;;;18.90;77.20;;;;;;4975560;28;20123;-67
2021/05/08 11:18:59;;;;;;;9.65;8.77;;;18.80;77.20;;;;;;4976530;28;20129;-67
2021/05/08 11:21:32;;;;;;;9.95;9.10;;;18.60;76.60;;;;;;5012668;28;20055;-67
2021/05/08 11:24:07;;;;;;;10.18;9.27;;;18.90;77.80;;;;;;5050309;28;20049;-68
2021/05/08 11:26:42;;;;;;;9.75;9.00;;;19.30;78.00;;;;;;5048839;28;20870;-67
2021/05/08 11:29:29;;;;;;;9.13;8.35;;;19.70;76.10;;;;;;5049306;28;20091;-68
2021/05/08 11:32:04;;;;;;;9.70;8.70;;;20.20;75.40;;;;;;5050193;28;20508;-68
2021/05/08 11:34:33;;;;;;;9.80;9.10;;;20.60;74.80;;;;;;5047256;28;20087;-68
2021/05/08 11:37:02;;;;;;;9.57;8.80;;;20.40;71.50;;;;;;5039549;28;20064;-67
2021/05/08 11:39:42;;;;;;;10.02;9.25;;;20.20;71.90;;;;;;5043654;28;20052;-67
2021/05/08 11:42:17;;;;;;;9.57;8.77;;;19.90;72.80;;;;;;5047802;28;20103;-67
2021/05/08 11:44:45;;;;;;;9.48;8.68;;;20.00;71.80;;;;;;5047627;28;20045;-67
2021/05/08 11:47:33;;;;;;;9.55;8.75;;;20.30;71.60;;;;;;5049283;28;20490;-68
2021/05/08 11:50:11;;;;;;;9.00;8.30;;;20.50;71.00;;;;;;5048669;28;20052;-68
2021/05/08 11:52:40;;;;;;;9.63;8.88;;;20.50;70.30;;;;;;5049866;28;20052;-68
2021/05/08 11:55:13;;;;;;;9.10;8.40;;;20.10;71.70;;;;;;5049110;28;20041;-68
2021/05/08 11:57:47;;;;;;;9.85;8.85;;;20.30;71.20;;;;;;5047313;28;20052;-68
2021/05/08 12:00:22;;;;;;;9.50;8.80;;;19.50;72.40;;;;;;5050875;28;20134;-67
2021/05/08 12:02:49;;;;;;;10.02;9.30;;;19.10;72.30;;;;;;5048718;28;20513;-67
2021/05/08 12:05:22;;;;;;;9.60;8.70;;;19.00;73.20;;;;;;5051159;28;20057;-67
2021/05/08 12:07:49;;;;;;;10.20;9.40;;;19.20;72.80;;;;;;5048756;28;20438;-68
2021/05/08 12:10:21;;;;;;;10.18;9.18;;;19.60;71.70;;;;;;5063687;28;20060;-68
2021/05/08 12:12:57;;;;;;;9.80;9.00;;;20.20;71.80;;;;;;5050640;28;20041;-68
2021/05/08 12:15:24;;;;;;;9.20;8.50;;;20.90;71.60;;;;;;5047236;28;20091;-69
2021/05/08 12:18:12;;;;;;;9.60;8.80;;;21.60;70.40;;;;;;5047357;28;20080;-68
2021/05/08 12:20:45;;;;;;;9.32;8.55;;;22.10;67.20;;;;;;5044590;28;20077;-69
2021/05/08 12:23:17;;;;;;;9.10;8.38;;;21.60;68.00;;;;;;5049984;28;20068;-68
2021/05/08 12:26:10;;;;;;;9.27;8.50;;;22.30;67.30;;;;;;5064820;28;20412;-68
2021/05/08 12:28:41;;;;;;;10.75;8.98;;;23.10;68.50;;;;;;5044770;28;20060;-68
2021/05/08 12:31:28;;;;;;;12.13;11.13;;;23.50;64.90;;;;;;5049556;28;20057;-69
2021/05/08 12:34:09;;;;;;;9.38;8.57;;;23.40;65.00;;;;;;5048920;28;20064;-68
2021/05/08 12:36:37;;;;;;;9.60;8.80;;;23.40;65.30;;;;;;5045939;28;20067;-68
2021/05/08 12:39:23;;;;;;;9.25;8.65;;;24.20;63.10;;;;;;5049836;28;20257;-67
2021/05/08 12:42:02;;;;;;;9.05;8.40;;;24.00;62.60;;;;;;5038396;28;20038;-67
2021/05/08 12:44:38;;;;;;;9.63;8.77;;;23.50;62.00;;;;;;5044605;28;20048;-66
2021/05/08 12:47:24;;;;;;;9.38;8.60;;;23.40;62.10;;;;;;5041976;28;20450;-68
2021/05/08 12:50:11;;;;;;;9.55;8.80;;;23.40;62.60;;;;;;5046133;28;20046;-68
2021/05/08 12:52:43;;;;;;;9.23;8.52;;;23.90;61.00;;;;;;5042342;28;20064;-68
2021/05/08 12:55:23;;;;;;;;;;;24.90;59.90;;;;;;5053563;28;20503;-68
2021/05/08 12:57:51;;;;;;;8.93;8.32;;;24.70;59.20;;;;;;5049851;28;19921;-68